Terminal Aerodrome Forecast
Issued by NWS Mt. Holly, NJ

Home | Current Version | Previous Version | Text Only | Print | Product List | Glossary On
Versions: 1 2 3 4 5 6 7 8 9 10 11 12 13 14 15 16 17 18 19 20 21
000
FTUS41 KPHI 211700
TAFILG
TAF
KILG 211721Z 2118/2218 30004KT P6SM SCT020 BKN200
      TEMPO 2118/2119 BKN020
     FM212000 23005KT P6SM FEW025 BKN200
     FM220400 27007KT P6SM SCT050
     FM221300 30012G20KT P6SM FEW050
     FM221700 32012G22KT P6SM FEW050=

USA.gov is the U.S. government's official web portal to all federal, state and local government web resources and services.